sensor_id;sensor_type;location;lat;lon;timestamp;temperature;humidity
67275;DHT22;55463;52.324;5.122;2022-07-23T00:00:51;16.01;86.35
67275;DHT22;55463;52.324;5.122;2022-07-23T00:03:16;16.00;86.47
67275;DHT22;55463;52.324;5.122;2022-07-23T00:05:42;16.01;86.25
67275;DHT22;55463;52.324;5.122;2022-07-23T00:08:07;16.00;86.45
67275;DHT22;55463;52.324;5.122;2022-07-23T00:10:33;15.97;86.42
67275;DHT22;55463;52.324;5.122;2022-07-23T00:12:59;15.96;86.32
67275;DHT22;55463;52.324;5.122;2022-07-23T00:15:24;15.94;86.65
67275;DHT22;55463;52.324;5.122;2022-07-23T00:17:50;15.87;86.70
67275;DHT22;55463;52.324;5.122;2022-07-23T00:20:16;15.87;86.48
67275;DHT22;55463;52.324;5.122;2022-07-23T00:22:48;15.86;86.34
67275;DHT22;55463;52.324;5.122;2022-07-23T00:25:14;15.86;86.32
67275;DHT22;55463;52.324;5.122;2022-07-23T00:27:39;15.83;86.32
67275;DHT22;55463;52.324;5.122;2022-07-23T00:30:05;15.77;86.30
67275;DHT22;55463;52.324;5.122;2022-07-23T00:32:31;15.74;86.58
67275;DHT22;55463;52.324;5.122;2022-07-23T00:34:56;15.71;86.80
67275;DHT22;55463;52.324;5.122;2022-07-23T00:37:22;15.70;86.92
67275;DHT22;55463;52.324;5.122;2022-07-23T00:39:47;15.63;86.86
67275;DHT22;55463;52.324;5.122;2022-07-23T00:42:12;15.58;87.25
67275;DHT22;55463;52.324;5.122;2022-07-23T00:44:38;15.60;87.15
67275;DHT22;55463;52.324;5.122;2022-07-23T00:47:03;15.53;87.08
67275;DHT22;55463;52.324;5.122;2022-07-23T00:49:31;15.56;87.12
67275;DHT22;55463;52.324;5.122;2022-07-23T00:51:57;15.58;87.47
67275;DHT22;55463;52.324;5.122;2022-07-23T00:54:24;15.65;86.86
67275;DHT22;55463;52.324;5.122;2022-07-23T00:56:50;15.65;86.59
67275;DHT22;55463;52.324;5.122;2022-07-23T00:59:16;15.69;86.75
67275;DHT22;55463;52.324;5.122;2022-07-23T01:01:41;15.65;86.74
67275;DHT22;55463;52.324;5.122;2022-07-23T01:04:09;15.67;86.24
67275;DHT22;55463;52.324;5.122;2022-07-23T01:06:36;15.70;86.51
67275;DHT22;55463;52.324;5.122;2022-07-23T01:09:04;15.69;86.24
67275;DHT22;55463;52.324;5.122;2022-07-23T01:11:30;15.73;86.21
67275;DHT22;55463;52.324;5.122;2022-07-23T01:13:56;15.76;86.24
67275;DHT22;55463;52.324;5.122;2022-07-23T01:16:21;15.74;86.20
67275;DHT22;55463;52.324;5.122;2022-07-23T01:18:47;15.79;86.04
67275;DHT22;55463;52.324;5.122;2022-07-23T01:21:12;15.80;86.14
67275;DHT22;55463;52.324;5.122;2022-07-23T01:23:38;15.79;86.23
67275;DHT22;55463;52.324;5.122;2022-07-23T01:26:04;15.77;86.16
67275;DHT22;55463;52.324;5.122;2022-07-23T01:28:29;15.76;86.11
67275;DHT22;55463;52.324;5.122;2022-07-23T01:30:55;15.73;85.93
67275;DHT22;55463;52.324;5.122;2022-07-23T01:33:20;15.71;86.10
67275;DHT22;55463;52.324;5.122;2022-07-23T01:35:45;15.65;86.18
67275;DHT22;55463;52.324;5.122;2022-07-23T01:38:11;15.62;86.19
67275;DHT22;55463;52.324;5.122;2022-07-23T01:40:36;15.63;86.22
67275;DHT22;55463;52.324;5.122;2022-07-23T01:43:01;15.60;86.44
67275;DHT22;55463;52.324;5.122;2022-07-23T01:45:27;15.55;86.63
67275;DHT22;55463;52.324;5.122;2022-07-23T01:47:52;15.46;86.64
67275;DHT22;55463;52.324;5.122;2022-07-23T01:50:18;15.41;86.49
67275;DHT22;55463;52.324;5.122;2022-07-23T01:52:43;15.38;86.61
67275;DHT22;55463;52.324;5.122;2022-07-23T01:55:08;15.35;86.78
67275;DHT22;55463;52.324;5.122;2022-07-23T01:57:34;15.31;86.81
67275;DHT22;55463;52.324;5.122;2022-07-23T01:59:59;15.27;86.78
67275;DHT22;55463;52.324;5.122;2022-07-23T02:02:25;15.28;87.28
67275;DHT22;55463;52.324;5.122;2022-07-23T02:04:50;15.24;86.85
67275;DHT22;55463;52.324;5.122;2022-07-23T02:07:15;15.17;86.96
67275;DHT22;55463;52.324;5.122;2022-07-23T02:09:41;15.17;87.37
67275;DHT22;55463;52.324;5.122;2022-07-23T02:12:06;15.07;87.24
67275;DHT22;55463;52.324;5.122;2022-07-23T02:14:32;14.98;87.70
67275;DHT22;55463;52.324;5.122;2022-07-23T02:16:57;14.93;88.33
67275;DHT22;55463;52.324;5.122;2022-07-23T02:19:23;14.87;88.15
67275;DHT22;55463;52.324;5.122;2022-07-23T02:21:48;14.81;88.34
67275;DHT22;55463;52.324;5.122;2022-07-23T02:24:14;14.87;88.46
67275;DHT22;55463;52.324;5.122;2022-07-23T02:26:39;14.84;88.58
67275;DHT22;55463;52.324;5.122;2022-07-23T02:29:05;14.81;88.56
67275;DHT22;55463;52.324;5.122;2022-07-23T02:31:30;14.81;88.96
67275;DHT22;55463;52.324;5.122;2022-07-23T02:33:56;14.83;88.91
67275;DHT22;55463;52.324;5.122;2022-07-23T02:36:22;14.79;88.78
67275;DHT22;55463;52.324;5.122;2022-07-23T02:38:50;14.80;88.93
67275;DHT22;55463;52.324;5.122;2022-07-23T02:41:15;14.80;88.78
67275;DHT22;55463;52.324;5.122;2022-07-23T02:43:41;14.81;88.96
67275;DHT22;55463;52.324;5.122;2022-07-23T02:46:06;14.83;89.08
67275;DHT22;55463;52.324;5.122;2022-07-23T02:48:32;14.86;89.01
67275;DHT22;55463;52.324;5.122;2022-07-23T02:50:58;14.86;88.87
67275;DHT22;55463;52.324;5.122;2022-07-23T02:53:23;14.87;88.81
67275;DHT22;55463;52.324;5.122;2022-07-23T02:55:49;14.86;88.55
67275;DHT22;55463;52.324;5.122;2022-07-23T02:58:14;14.88;88.60
67275;DHT22;55463;52.324;5.122;2022-07-23T03:00:40;14.87;88.37
67275;DHT22;55463;52.324;5.122;2022-07-23T03:03:05;14.91;88.76
67275;DHT22;55463;52.324;5.122;2022-07-23T03:05:32;14.93;88.74
67275;DHT22;55463;52.324;5.122;2022-07-23T03:07:58;14.91;88.46
67275;DHT22;55463;52.324;5.122;2022-07-23T03:10:23;14.94;88.46
67275;DHT22;55463;52.324;5.122;2022-07-23T03:12:48;14.95;88.20
67275;DHT22;55463;52.324;5.122;2022-07-23T03:15:14;14.93;87.97
67275;DHT22;55463;52.324;5.122;2022-07-23T03:17:39;14.94;87.68
67275;DHT22;55463;52.324;5.122;2022-07-23T03:20:05;14.91;87.29
67275;DHT22;55463;52.324;5.122;2022-07-23T03:22:30;14.97;86.58
67275;DHT22;55463;52.324;5.122;2022-07-23T03:24:56;14.91;86.29
67275;DHT22;55463;52.324;5.122;2022-07-23T03:27:22;14.93;85.94
67275;DHT22;55463;52.324;5.122;2022-07-23T03:29:49;14.93;85.39
67275;DHT22;55463;52.324;5.122;2022-07-23T03:32:14;14.93;85.28
67275;DHT22;55463;52.324;5.122;2022-07-23T03:34:39;14.87;85.02
67275;DHT22;55463;52.324;5.122;2022-07-23T03:37:05;14.84;84.98
67275;DHT22;55463;52.324;5.122;2022-07-23T03:39:30;14.81;84.97
67275;DHT22;55463;52.324;5.122;2022-07-23T03:41:56;14.75;84.90
67275;DHT22;55463;52.324;5.122;2022-07-23T03:44:21;14.76;84.32
67275;DHT22;55463;52.324;5.122;2022-07-23T03:46:47;14.75;84.43
67275;DHT22;55463;52.324;5.122;2022-07-23T03:49:12;14.73;83.84
67275;DHT22;55463;52.324;5.122;2022-07-23T03:51:37;14.73;83.79
67275;DHT22;55463;52.324;5.122;2022-07-23T03:54:03;14.73;83.58
67275;DHT22;55463;52.324;5.122;2022-07-23T03:56:28;14.75;83.39
67275;DHT22;55463;52.324;5.122;2022-07-23T03:58:54;14.69;83.19
67275;DHT22;55463;52.324;5.122;2022-07-23T04:01:19;14.70;83.30
67275;DHT22;55463;52.324;5.122;2022-07-23T04:03:44;14.73;83.41
67275;DHT22;55463;52.324;5.122;2022-07-23T04:06:12;14.79;83.31
67275;DHT22;55463;52.324;5.122;2022-07-23T04:08:38;14.77;83.46
67275;DHT22;55463;52.324;5.122;2022-07-23T04:11:03;14.83;83.62
67275;DHT22;55463;52.324;5.122;2022-07-23T04:13:29;14.84;83.58
67275;DHT22;55463;52.324;5.122;2022-07-23T04:15:54;14.91;83.79
67275;DHT22;55463;52.324;5.122;2022-07-23T04:18:20;14.90;83.77
67275;DHT22;55463;52.324;5.122;2022-07-23T04:20:50;14.98;83.38
67275;DHT22;55463;52.324;5.122;2022-07-23T04:23:15;15.08;82.82
67275;DHT22;55463;52.324;5.122;2022-07-23T04:25:40;15.08;83.20
67275;DHT22;55463;52.324;5.122;2022-07-23T04:28:06;15.11;83.42
67275;DHT22;55463;52.324;5.122;2022-07-23T04:30:31;15.10;83.56
67275;DHT22;55463;52.324;5.122;2022-07-23T04:32:56;15.08;83.47
67275;DHT22;55463;52.324;5.122;2022-07-23T04:35:22;15.11;84.03
67275;DHT22;55463;52.324;5.122;2022-07-23T04:37:47;15.14;83.59
67275;DHT22;55463;52.324;5.122;2022-07-23T04:40:13;15.15;83.86
67275;DHT22;55463;52.324;5.122;2022-07-23T04:42:38;15.20;83.84
67275;DHT22;55463;52.324;5.122;2022-07-23T04:45:04;15.27;82.65
67275;DHT22;55463;52.324;5.122;2022-07-23T04:47:30;15.32;82.11
67275;DHT22;55463;52.324;5.122;2022-07-23T04:49:56;15.35;81.99
67275;DHT22;55463;52.324;5.122;2022-07-23T04:52:22;15.42;81.54
67275;DHT22;55463;52.324;5.122;2022-07-23T04:54:48;15.49;81.65
67275;DHT22;55463;52.324;5.122;2022-07-23T04:57:13;15.56;81.41
67275;DHT22;55463;52.324;5.122;2022-07-23T04:59:38;15.59;81.06
67275;DHT22;55463;52.324;5.122;2022-07-23T05:02:04;15.65;80.84
67275;DHT22;55463;52.324;5.122;2022-07-23T05:04:29;15.71;81.44
67275;DHT22;55463;52.324;5.122;2022-07-23T05:06:56;15.73;81.70
67275;DHT22;55463;52.324;5.122;2022-07-23T05:09:22;15.77;81.39
67275;DHT22;55463;52.324;5.122;2022-07-23T05:11:47;15.80;81.30
67275;DHT22;55463;52.324;5.122;2022-07-23T05:14:12;15.79;81.91
67275;DHT22;55463;52.324;5.122;2022-07-23T05:16:38;15.91;81.43
67275;DHT22;55463;52.324;5.122;2022-07-23T05:19:03;15.96;81.89
67275;DHT22;55463;52.324;5.122;2022-07-23T05:21:29;16.01;81.23
67275;DHT22;55463;52.324;5.122;2022-07-23T05:23:55;16.07;79.94
67275;DHT22;55463;52.324;5.122;2022-07-23T05:26:21;16.24;80.85
67275;DHT22;55463;52.324;5.122;2022-07-23T05:28:46;16.51;80.08
67275;DHT22;55463;52.324;5.122;2022-07-23T05:31:11;16.85;79.18
67275;DHT22;55463;52.324;5.122;2022-07-23T05:33:37;17.24;78.23
67275;DHT22;55463;52.324;5.122;2022-07-23T05:36:03;17.63;77.21
67275;DHT22;55463;52.324;5.122;2022-07-23T05:38:29;18.05;75.68
67275;DHT22;55463;52.324;5.122;2022-07-23T05:40:55;18.35;75.39
67275;DHT22;55463;52.324;5.122;2022-07-23T05:43:20;18.59;71.64
67275;DHT22;55463;52.324;5.122;2022-07-23T05:45:46;18.91;72.11
67275;DHT22;55463;52.324;5.122;2022-07-23T05:48:11;18.59;72.19
67275;DHT22;55463;52.324;5.122;2022-07-23T05:50:36;18.77;71.88
67275;DHT22;55463;52.324;5.122;2022-07-23T05:53:02;19.07;71.89
67275;DHT22;55463;52.324;5.122;2022-07-23T05:55:28;19.26;70.70
67275;DHT22;55463;52.324;5.122;2022-07-23T05:57:56;19.55;71.46
67275;DHT22;55463;52.324;5.122;2022-07-23T06:00:22;19.97;68.24
67275;DHT22;55463;52.324;5.122;2022-07-23T06:02:48;19.93;69.46
67275;DHT22;55463;52.324;5.122;2022-07-23T06:05:13;20.14;66.79
67275;DHT22;55463;52.324;5.122;2022-07-23T06:07:38;20.45;65.75
67275;DHT22;55463;52.324;5.122;2022-07-23T06:10:04;20.65;67.39
67275;DHT22;55463;52.324;5.122;2022-07-23T06:12:30;20.93;66.46
67275;DHT22;55463;52.324;5.122;2022-07-23T06:14:55;20.59;65.35
67275;DHT22;55463;52.324;5.122;2022-07-23T06:17:21;20.68;65.40
67275;DHT22;55463;52.324;5.122;2022-07-23T06:19:46;20.87;64.96
67275;DHT22;55463;52.324;5.122;2022-07-23T06:22:11;21.52;65.11
67275;DHT22;55463;52.324;5.122;2022-07-23T06:24:37;21.72;63.89
67275;DHT22;55463;52.324;5.122;2022-07-23T06:27:03;22.03;64.70
67275;DHT22;55463;52.324;5.122;2022-07-23T06:29:28;22.17;60.66
67275;DHT22;55463;52.324;5.122;2022-07-23T06:31:54;22.20;61.29
67275;DHT22;55463;52.324;5.122;2022-07-23T06:34:19;22.25;61.20
67275;DHT22;55463;52.324;5.122;2022-07-23T06:36:45;22.39;61.29
67275;DHT22;55463;52.324;5.122;2022-07-23T06:39:10;22.77;59.99
67275;DHT22;55463;52.324;5.122;2022-07-23T06:41:35;22.73;57.02
67275;DHT22;55463;52.324;5.122;2022-07-23T06:44:01;22.70;57.56
67275;DHT22;55463;52.324;5.122;2022-07-23T06:46:26;23.25;59.60
67275;DHT22;55463;52.324;5.122;2022-07-23T06:48:52;22.49;59.36
67275;DHT22;55463;52.324;5.122;2022-07-23T06:51:17;21.63;60.62
67275;DHT22;55463;52.324;5.122;2022-07-23T06:53:42;21.14;62.06
67275;DHT22;55463;52.324;5.122;2022-07-23T06:56:08;20.20;64.98
67275;DHT22;55463;52.324;5.122;2022-07-23T06:58:33;19.76;65.36
67275;DHT22;55463;52.324;5.122;2022-07-23T07:00:59;19.76;65.53
67275;DHT22;55463;52.324;5.122;2022-07-23T07:03:24;19.66;66.61
67275;DHT22;55463;52.324;5.122;2022-07-23T07:05:49;19.94;66.98
67275;DHT22;55463;52.324;5.122;2022-07-23T07:08:15;20.55;65.59
67275;DHT22;55463;52.324;5.122;2022-07-23T07:10:41;21.07;65.22
67275;DHT22;55463;52.324;5.122;2022-07-23T07:13:06;21.12;63.53
67275;DHT22;55463;52.324;5.122;2022-07-23T07:15:31;21.79;60.95
67275;DHT22;55463;52.324;5.122;2022-07-23T07:17:57;22.31;60.82
67275;DHT22;55463;52.324;5.122;2022-07-23T07:20:22;22.49;59.76
67275;DHT22;55463;52.324;5.122;2022-07-23T07:22:49;22.53;59.12
67275;DHT22;55463;52.324;5.122;2022-07-23T07:25:14;23.10;60.32
67275;DHT22;55463;52.324;5.122;2022-07-23T07:27:39;22.76;58.84
67275;DHT22;55463;52.324;5.122;2022-07-23T07:30:05;22.82;58.80
67275;DHT22;55463;52.324;5.122;2022-07-23T07:32:31;23.15;59.46
67275;DHT22;55463;52.324;5.122;2022-07-23T07:34:57;22.62;59.72
67275;DHT22;55463;52.324;5.122;2022-07-23T07:37:23;22.82;60.71
67275;DHT22;55463;52.324;5.122;2022-07-23T07:39:48;23.22;59.73
67275;DHT22;55463;52.324;5.122;2022-07-23T07:42:14;23.14;57.80
67275;DHT22;55463;52.324;5.122;2022-07-23T07:44:39;23.37;58.64
67275;DHT22;55463;52.324;5.122;2022-07-23T07:47:04;23.66;57.51
67275;DHT22;55463;52.324;5.122;2022-07-23T07:49:30;23.77;57.45
67275;DHT22;55463;52.324;5.122;2022-07-23T07:51:55;23.67;56.97
67275;DHT22;55463;52.324;5.122;2022-07-23T07:54:20;22.97;56.58
67275;DHT22;55463;52.324;5.122;2022-07-23T07:56:46;23.35;57.48
67275;DHT22;55463;52.324;5.122;2022-07-23T07:59:13;23.48;56.05
67275;DHT22;55463;52.324;5.122;2022-07-23T08:01:40;23.12;56.19
67275;DHT22;55463;52.324;5.122;2022-07-23T08:04:05;23.14;57.82
67275;DHT22;55463;52.324;5.122;2022-07-23T08:06:31;23.94;56.95
67275;DHT22;55463;52.324;5.122;2022-07-23T08:08:56;24.17;56.43
67275;DHT22;55463;52.324;5.122;2022-07-23T08:11:21;23.27;55.43
67275;DHT22;55463;52.324;5.122;2022-07-23T08:13:47;23.18;55.95
67275;DHT22;55463;52.324;5.122;2022-07-23T08:16:13;23.11;56.24
67275;DHT22;55463;52.324;5.122;2022-07-23T08:18:38;23.10;57.53
67275;DHT22;55463;52.324;5.122;2022-07-23T08:21:03;23.55;56.34
67275;DHT22;55463;52.324;5.122;2022-07-23T08:23:31;23.24;56.59
67275;DHT22;55463;52.324;5.122;2022-07-23T08:25:56;24.13;56.35
67275;DHT22;55463;52.324;5.122;2022-07-23T08:28:22;23.83;53.43
67275;DHT22;55463;52.324;5.122;2022-07-23T08:30:48;24.21;54.45
67275;DHT22;55463;52.324;5.122;2022-07-23T08:33:15;24.44;55.81
67275;DHT22;55463;52.324;5.122;2022-07-23T08:35:43;24.38;53.79
67275;DHT22;55463;52.324;5.122;2022-07-23T08:38:11;24.13;54.80
67275;DHT22;55463;52.324;5.122;2022-07-23T08:40:40;24.18;54.00
67275;DHT22;55463;52.324;5.122;2022-07-23T08:43:08;24.27;53.63
67275;DHT22;55463;52.324;5.122;2022-07-23T08:45:39;24.89;53.20
67275;DHT22;55463;52.324;5.122;2022-07-23T08:48:11;24.76;53.49
67275;DHT22;55463;52.324;5.122;2022-07-23T08:50:38;24.86;53.35
67275;DHT22;55463;52.324;5.122;2022-07-23T08:53:07;24.66;52.98
67275;DHT22;55463;52.324;5.122;2022-07-23T08:55:33;25.23;52.80
67275;DHT22;55463;52.324;5.122;2022-07-23T08:57:59;24.41;53.35
67275;DHT22;55463;52.324;5.122;2022-07-23T09:00:25;24.44;53.85
67275;DHT22;55463;52.324;5.122;2022-07-23T09:02:51;24.04;55.27
67275;DHT22;55463;52.324;5.122;2022-07-23T09:05:17;24.42;55.10
67275;DHT22;55463;52.324;5.122;2022-07-23T09:08:08;24.76;52.86
67275;DHT22;55463;52.324;5.122;2022-07-23T09:10:53;24.51;53.46
67275;DHT22;55463;52.324;5.122;2022-07-23T09:15:58;24.14;52.21
67275;DHT22;55463;52.324;5.122;2022-07-23T09:18:38;24.80;52.94
67275;DHT22;55463;52.324;5.122;2022-07-23T09:21:21;25.11;51.65
67275;DHT22;55463;52.324;5.122;2022-07-23T09:23:58;25.13;52.56
67275;DHT22;55463;52.324;5.122;2022-07-23T09:31:48;25.82;52.42
67275;DHT22;55463;52.324;5.122;2022-07-23T09:34:19;25.41;51.56
67275;DHT22;55463;52.324;5.122;2022-07-23T09:36:46;25.04;50.58
67275;DHT22;55463;52.324;5.122;2022-07-23T09:39:13;26.01;51.75
67275;DHT22;55463;52.324;5.122;2022-07-23T09:41:45;26.10;51.51
67275;DHT22;55463;52.324;5.122;2022-07-23T09:44:15;26.00;52.07
67275;DHT22;55463;52.324;5.122;2022-07-23T09:46:41;26.18;51.79
67275;DHT22;55463;52.324;5.122;2022-07-23T09:49:17;26.42;51.95
67275;DHT22;55463;52.324;5.122;2022-07-23T09:51:48;26.25;50.26
67275;DHT22;55463;52.324;5.122;2022-07-23T09:56:57;25.99;51.86
67275;DHT22;55463;52.324;5.122;2022-07-23T09:59:29;25.70;49.71
67275;DHT22;55463;52.324;5.122;2022-07-23T10:01:57;25.92;49.17
67275;DHT22;55463;52.324;5.122;2022-07-23T10:04:27;26.35;48.04
67275;DHT22;55463;52.324;5.122;2022-07-23T10:06:54;26.07;48.77
67275;DHT22;55463;52.324;5.122;2022-07-23T10:09:32;25.42;48.40
67275;DHT22;55463;52.324;5.122;2022-07-23T10:12:04;25.57;48.59
67275;DHT22;55463;52.324;5.122;2022-07-23T10:14:33;25.63;50.24
67275;DHT22;55463;52.324;5.122;2022-07-23T10:17:01;26.07;50.42
67275;DHT22;55463;52.324;5.122;2022-07-23T10:19:27;26.35;49.22
67275;DHT22;55463;52.324;5.122;2022-07-23T10:21:57;26.20;48.25
67275;DHT22;55463;52.324;5.122;2022-07-23T10:27:26;26.07;48.57
67275;DHT22;55463;52.324;5.122;2022-07-23T10:30:09;26.10;50.28
67275;DHT22;55463;52.324;5.122;2022-07-23T10:36:07;25.48;50.72
67275;DHT22;55463;52.324;5.122;2022-07-23T10:41:10;25.78;51.56
67275;DHT22;55463;52.324;5.122;2022-07-23T10:43:35;25.49;50.84
67275;DHT22;55463;52.324;5.122;2022-07-23T10:46:25;25.23;51.41
67275;DHT22;55463;52.324;5.122;2022-07-23T10:49:31;25.28;51.83
67275;DHT22;55463;52.324;5.122;2022-07-23T10:52:20;25.34;52.37
67275;DHT22;55463;52.324;5.122;2022-07-23T10:55:38;25.45;51.55
67275;DHT22;55463;52.324;5.122;2022-07-23T10:57:49;25.04;53.34
67275;DHT22;55463;52.324;5.122;2022-07-23T11:00:17;25.73;51.84
67275;DHT22;55463;52.324;5.122;2022-07-23T11:02:45;25.45;52.44
67275;DHT22;55463;52.324;5.122;2022-07-23T11:05:44;25.63;49.56
67275;DHT22;55463;52.324;5.122;2022-07-23T11:10:38;25.06;54.42
67275;DHT22;55463;52.324;5.122;2022-07-23T11:13:40;25.27;51.49
67275;DHT22;55463;52.324;5.122;2022-07-23T11:16:15;25.34;51.03
67275;DHT22;55463;52.324;5.122;2022-07-23T11:36:58;25.63;52.25
67275;DHT22;55463;52.324;5.122;2022-07-23T11:39:25;25.80;51.05
67275;DHT22;55463;52.324;5.122;2022-07-23T11:41:52;26.20;52.47
67275;DHT22;55463;52.324;5.122;2022-07-23T11:44:28;25.88;51.62
67275;DHT22;55463;52.324;5.122;2022-07-23T11:47:05;25.73;51.50
67275;DHT22;55463;52.324;5.122;2022-07-23T11:49:31;26.17;52.50
67275;DHT22;55463;52.324;5.122;2022-07-23T11:52:06;25.76;51.20
67275;DHT22;55463;52.324;5.122;2022-07-23T11:54:33;25.82;52.07
67275;DHT22;55463;52.324;5.122;2022-07-23T11:57:00;26.06;51.57
67275;DHT22;55463;52.324;5.122;2022-07-23T11:59:32;26.14;53.69
67275;DHT22;55463;52.324;5.122;2022-07-23T12:02:03;26.53;52.96
67275;DHT22;55463;52.324;5.122;2022-07-23T12:04:49;26.45;51.74
67275;DHT22;55463;52.324;5.122;2022-07-23T12:07:28;26.38;49.98
67275;DHT22;55463;52.324;5.122;2022-07-23T12:09:55;26.40;50.86
67275;DHT22;55463;52.324;5.122;2022-07-23T12:12:22;26.10;51.90
67275;DHT22;55463;52.324;5.122;2022-07-23T12:14:58;26.38;52.30
67275;DHT22;55463;52.324;5.122;2022-07-23T12:17:29;26.23;52.37
67275;DHT22;55463;52.324;5.122;2022-07-23T12:19:59;26.42;51.02
67275;DHT22;55463;52.324;5.122;2022-07-23T12:22:33;26.69;51.35
67275;DHT22;55463;52.324;5.122;2022-07-23T12:25:00;26.92;50.58
67275;DHT22;55463;52.324;5.122;2022-07-23T12:27:27;26.99;50.57
67275;DHT22;55463;52.324;5.122;2022-07-23T12:29:53;27.30;48.29
67275;DHT22;55463;52.324;5.122;2022-07-23T12:32:27;26.80;47.56
67275;DHT22;55463;52.324;5.122;2022-07-23T12:35:07;27.26;50.13
67275;DHT22;55463;52.324;5.122;2022-07-23T12:37:36;27.11;47.49
67275;DHT22;55463;52.324;5.122;2022-07-23T12:45:19;27.11;46.97
67275;DHT22;55463;52.324;5.122;2022-07-23T12:50:48;27.38;49.74
67275;DHT22;55463;52.324;5.122;2022-07-23T12:56:05;27.58;50.51
67275;DHT22;55463;52.324;5.122;2022-07-23T13:01:08;28.03;47.59
67275;DHT22;55463;52.324;5.122;2022-07-23T13:06:02;27.86;47.16
67275;DHT22;55463;52.324;5.122;2022-07-23T13:08:30;28.00;48.96
67275;DHT22;55463;52.324;5.122;2022-07-23T13:10:56;28.03;47.68
67275;DHT22;55463;52.324;5.122;2022-07-23T13:13:23;27.75;46.94
67275;DHT22;55463;52.324;5.122;2022-07-23T13:15:50;27.34;47.68
67275;DHT22;55463;52.324;5.122;2022-07-23T13:18:15;27.37;48.72
67275;DHT22;55463;52.324;5.122;2022-07-23T13:20:42;27.58;48.39
67275;DHT22;55463;52.324;5.122;2022-07-23T13:23:08;27.76;48.86
67275;DHT22;55463;52.324;5.122;2022-07-23T13:25:33;27.86;48.59
67275;DHT22;55463;52.324;5.122;2022-07-23T13:27:59;27.75;45.30
67275;DHT22;55463;52.324;5.122;2022-07-23T13:30:25;27.66;45.30
67275;DHT22;55463;52.324;5.122;2022-07-23T13:32:50;27.61;46.69
67275;DHT22;55463;52.324;5.122;2022-07-23T13:35:16;27.40;49.25
67275;DHT22;55463;52.324;5.122;2022-07-23T13:37:41;27.17;47.64
67275;DHT22;55463;52.324;5.122;2022-07-23T13:40:07;27.00;48.76
67275;DHT22;55463;52.324;5.122;2022-07-23T13:42:33;27.07;49.65
67275;DHT22;55463;52.324;5.122;2022-07-23T13:44:58;27.21;47.35
67275;DHT22;55463;52.324;5.122;2022-07-23T13:47:24;27.07;50.65
67275;DHT22;55463;52.324;5.122;2022-07-23T13:49:50;27.45;50.40
67275;DHT22;55463;52.324;5.122;2022-07-23T13:52:15;27.55;51.28
67275;DHT22;55463;52.324;5.122;2022-07-23T13:54:41;27.62;49.79
67275;DHT22;55463;52.324;5.122;2022-07-23T13:57:06;27.62;47.14
67275;DHT22;55463;52.324;5.122;2022-07-23T13:59:34;27.30;48.71
67275;DHT22;55463;52.324;5.122;2022-07-23T14:02:00;27.70;49.14
67275;DHT22;55463;52.324;5.122;2022-07-23T14:04:25;27.69;47.71
67275;DHT22;55463;52.324;5.122;2022-07-23T14:06:50;27.79;45.84
67275;DHT22;55463;52.324;5.122;2022-07-23T14:09:16;27.83;46.27
67275;DHT22;55463;52.324;5.122;2022-07-23T14:11:41;27.83;46.15
67275;DHT22;55463;52.324;5.122;2022-07-23T14:14:06;27.62;45.46
67275;DHT22;55463;52.324;5.122;2022-07-23T14:16:32;27.59;46.54
67275;DHT22;55463;52.324;5.122;2022-07-23T14:18:57;26.71;46.96
67275;DHT22;55463;52.324;5.122;2022-07-23T14:21:23;27.42;46.96
67275;DHT22;55463;52.324;5.122;2022-07-23T14:23:48;27.63;47.12
67275;DHT22;55463;52.324;5.122;2022-07-23T14:26:13;27.76;45.01
67275;DHT22;55463;52.324;5.122;2022-07-23T14:28:39;27.68;44.63
67275;DHT22;55463;52.324;5.122;2022-07-23T14:31:04;27.89;45.95
67275;DHT22;55463;52.324;5.122;2022-07-23T14:33:30;28.09;45.63
67275;DHT22;55463;52.324;5.122;2022-07-23T14:35:55;27.81;44.05
67275;DHT22;55463;52.324;5.122;2022-07-23T14:38:21;27.76;43.83
67275;DHT22;55463;52.324;5.122;2022-07-23T14:40:46;28.03;45.48
67275;DHT22;55463;52.324;5.122;2022-07-23T14:43:11;28.00;44.44
67275;DHT22;55463;52.324;5.122;2022-07-23T14:45:37;27.94;45.03
67275;DHT22;55463;52.324;5.122;2022-07-23T14:48:02;27.52;45.27
67275;DHT22;55463;52.324;5.122;2022-07-23T14:50:28;27.78;46.34
67275;DHT22;55463;52.324;5.122;2022-07-23T14:52:54;27.78;46.16
67275;DHT22;55463;52.324;5.122;2022-07-23T14:55:20;27.42;46.37
67275;DHT22;55463;52.324;5.122;2022-07-23T14:57:45;27.79;45.96
67275;DHT22;55463;52.324;5.122;2022-07-23T15:00:11;27.31;45.50
67275;DHT22;55463;52.324;5.122;2022-07-23T15:02:37;27.62;46.75
67275;DHT22;55463;52.324;5.122;2022-07-23T15:05:05;27.63;46.78
67275;DHT22;55463;52.324;5.122;2022-07-23T15:07:31;28.10;46.29
67275;DHT22;55463;52.324;5.122;2022-07-23T15:09:59;27.83;45.10
67275;DHT22;55463;52.324;5.122;2022-07-23T15:12:25;27.83;46.81
67275;DHT22;55463;52.324;5.122;2022-07-23T15:14:50;27.57;47.39
67275;DHT22;55463;52.324;5.122;2022-07-23T15:17:18;27.44;47.45
67275;DHT22;55463;52.324;5.122;2022-07-23T15:19:43;27.13;46.18
67275;DHT22;55463;52.324;5.122;2022-07-23T15:22:09;27.18;46.19
67275;DHT22;55463;52.324;5.122;2022-07-23T15:24:34;27.54;46.92
67275;DHT22;55463;52.324;5.122;2022-07-23T15:27:00;27.23;47.09
67275;DHT22;55463;52.324;5.122;2022-07-23T15:29:25;27.38;48.16
67275;DHT22;55463;52.324;5.122;2022-07-23T15:31:51;27.08;46.94
67275;DHT22;55463;52.324;5.122;2022-07-23T15:34:16;27.34;47.40
67275;DHT22;55463;52.324;5.122;2022-07-23T15:36:42;27.44;46.18
67275;DHT22;55463;52.324;5.122;2022-07-23T15:39:07;27.44;48.30
67275;DHT22;55463;52.324;5.122;2022-07-23T15:41:33;27.59;48.39
67275;DHT22;55463;52.324;5.122;2022-07-23T15:43:59;27.58;47.35
67275;DHT22;55463;52.324;5.122;2022-07-23T15:46:24;27.54;46.39
67275;DHT22;55463;52.324;5.122;2022-07-23T15:48:50;27.35;47.81
67275;DHT22;55463;52.324;5.122;2022-07-23T15:51:16;27.38;48.37
67275;DHT22;55463;52.324;5.122;2022-07-23T15:53:42;27.51;50.71
67275;DHT22;55463;52.324;5.122;2022-07-23T15:56:08;27.38;47.74
67275;DHT22;55463;52.324;5.122;2022-07-23T15:58:34;27.34;50.00
67275;DHT22;55463;52.324;5.122;2022-07-23T16:01:00;26.79;49.11
67275;DHT22;55463;52.324;5.122;2022-07-23T16:03:29;26.47;49.70
67275;DHT22;55463;52.324;5.122;2022-07-23T16:05:55;25.93;49.67
67275;DHT22;55463;52.324;5.122;2022-07-23T16:08:20;25.94;51.64
67275;DHT22;55463;52.324;5.122;2022-07-23T16:10:46;26.07;52.71
67275;DHT22;55463;52.324;5.122;2022-07-23T16:13:11;25.88;51.12
67275;DHT22;55463;52.324;5.122;2022-07-23T16:15:36;25.75;51.32
67275;DHT22;55463;52.324;5.122;2022-07-23T16:18:02;25.63;52.61
67275;DHT22;55463;52.324;5.122;2022-07-23T16:20:28;25.92;53.07
67275;DHT22;55463;52.324;5.122;2022-07-23T16:22:53;25.82;51.86
67275;DHT22;55463;52.324;5.122;2022-07-23T16:25:19;25.75;52.44